Time;durP1;ratioP1;P1;durP2;ratioP2;P2;SDS_P1;SDS_P2;PMS_P1;PMS_P2;Temp;Humidity;BMP_temperature;BMP_pressure;BME280_temperature;BME280_humidity;BME280_pressure;Samples;Min_cycle;Max_cycle;Signal;HPM_P1;HPM_P2
2023/04/20 00:02:01;;;;;;;6.37;5.87;;;;;;;1.37;nan;96962.03;5050581;28;20217;-71
2023/04/20 00:04:29;;;;;;;7.20;6.50;;;;;;;1.28;nan;96957.59;5049854;28;20231;-71
2023/04/20 00:06:58;;;;;;;6.53;6.03;;;;;;;1.29;nan;96952.25;5028394;28;20260;-71
2023/04/20 00:09:27;;;;;;;6.30;5.80;;;;;;;1.16;nan;96962.09;5049625;28;20820;-71
2023/04/20 00:11:55;;;;;;;6.77;6.13;;;;;;;0.97;nan;96941.94;5052171;28;20205;-72
2023/04/20 00:14:23;;;;;;;7.73;6.93;;;;;;;0.94;nan;96934.34;5050106;28;20238;-70
2023/04/20 00:16:51;;;;;;;7.10;6.50;;;;;;;0.90;nan;96940.78;5004604;28;20219;-71
2023/04/20 00:19:19;;;;;;;7.40;6.70;;;;;;;0.92;nan;96942.31;5052194;28;20202;-71
2023/04/20 00:21:47;;;;;;;7.13;6.53;;;;;;;1.02;nan;96929.34;5031362;28;20225;-71
2023/04/20 00:24:15;;;;;;;7.90;7.20;;;;;;;1.09;nan;96935.69;5050717;28;20226;-70
2023/04/20 00:26:44;;;;;;;7.67;6.97;;;;;;;1.15;nan;96919.50;5048777;28;20234;-70
2023/04/20 00:29:12;;;;;;;8.70;7.90;;;;;;;1.17;nan;96931.59;5048211;28;20674;-71
2023/04/20 00:31:40;;;;;;;7.40;6.80;;;;;;;1.22;nan;96930.25;5004880;28;20672;-71
2023/04/20 00:34:08;;;;;;;7.60;6.90;;;;;;;1.25;nan;96924.75;5052612;28;20226;-71
2023/04/20 00:36:35;;;;;;;7.47;6.77;;;;;;;1.28;nan;96921.03;5051905;28;20210;-70
2023/04/20 00:39:04;;;;;;;6.70;6.30;;;;;;;1.29;nan;96920.09;5029953;28;20805;-71
2023/04/20 00:41:32;;;;;;;7.50;6.90;;;;;;;1.22;nan;96914.59;5055882;28;20207;-70
2023/04/20 00:44:01;;;;;;;7.83;7.23;;;;;;;1.30;nan;96913.91;5046561;28;21016;-71
2023/04/20 00:46:29;;;;;;;7.60;7.00;;;;;;;1.30;nan;96911.28;4999126;28;20646;-71
2023/04/20 00:48:57;;;;;;;8.40;7.60;;;;;;;1.29;nan;96905.25;5053974;28;20260;-72
2023/04/20 00:51:25;;;;;;;7.30;6.70;;;;;;;1.30;nan;96914.75;5049884;28;20285;-70
2023/04/20 00:53:53;;;;;;;8.07;7.47;;;;;;;1.21;nan;96912.09;5028585;28;21015;-70
2023/04/20 00:56:20;;;;;;;7.80;7.13;;;;;;;1.11;nan;96901.59;5052446;28;20497;-71
2023/04/20 00:58:48;;;;;;;11.03;7.73;;;;;;;1.07;nan;96906.28;5052384;28;20236;-70
2023/04/20 01:01:18;;;;;;;7.90;7.20;;;;;;;1.10;nan;96900.81;5051019;28;20213;-71
2023/04/20 01:03:46;;;;;;;8.57;7.87;;;;;;;1.13;nan;96897.94;4997841;28;20230;-71
2023/04/20 01:06:14;;;;;;;8.47;7.63;;;;;;;1.12;nan;96892.81;5024611;28;20327;-71
2023/04/20 01:08:50;;;;;;;10.50;9.43;;;;;;;1.00;nan;96886.91;5054899;28;20207;-70
2023/04/20 01:11:18;;;;;;;9.37;8.47;;;;;;;1.00;nan;96890.31;5038389;28;20549;-70
2023/04/20 01:13:46;;;;;;;9.37;8.33;;;;;;;0.98;nan;96888.81;5055009;28;20678;-71
2023/04/20 01:16:14;;;;;;;10.67;8.77;;;;;;;0.92;nan;96886.69;5047826;28;20206;-70
2023/04/20 01:18:45;;;;;;;9.03;8.30;;;;;;;0.95;nan;96891.69;5002522;28;20445;-72
2023/04/20 01:21:13;;;;;;;9.43;8.63;;;;;;;0.88;nan;96893.13;5046065;28;20299;-70
2023/04/20 01:23:42;;;;;;;8.60;7.90;;;;;;;0.85;nan;96879.41;5050597;28;20249;-71
2023/04/20 01:26:10;;;;;;;8.53;7.83;;;;;;;0.77;nan;96870.59;5023033;28;20614;-70
2023/04/20 01:28:38;;;;;;;9.00;8.20;;;;;;;0.80;nan;96870.34;5054742;28;20203;-70
2023/04/20 01:31:07;;;;;;;9.30;8.57;;;;;;;0.83;nan;96878.69;5049899;28;21106;-72
2023/04/20 01:33:35;;;;;;;10.00;8.80;;;;;;;0.80;nan;96880.75;5001423;28;20231;-72
2023/04/20 01:36:04;;;;;;;9.67;8.77;;;;;;;0.80;nan;96870.34;5037123;28;20767;-73
2023/04/20 01:38:33;;;;;;;11.27;10.17;;;;;;;0.75;nan;96868.09;5046605;28;20213;-73
2023/04/20 01:41:03;;;;;;;9.00;8.30;;;;;;;0.65;nan;96867.25;5023275;28;20291;-73
2023/04/20 01:43:31;;;;;;;9.20;8.50;;;;;;;0.71;nan;96877.16;5053398;28;20249;-73
2023/04/20 01:45:59;;;;;;;9.53;8.73;;;;;;;0.72;nan;96878.78;5044201;28;20582;-74
2023/04/20 01:48:27;;;;;;;11.00;9.70;;;;;;;0.74;nan;96879.50;5052392;28;20213;-73
2023/04/20 01:50:55;;;;;;;9.83;8.93;;;;;;;0.76;nan;96871.53;4990668;28;20552;-72
2023/04/20 01:53:24;;;;;;;10.57;9.47;;;;;;;0.70;nan;96868.47;5051056;28;20272;-72
2023/04/20 01:55:52;;;;;;;9.33;8.53;;;;;;;0.74;nan;96866.44;5041650;28;20879;-74
2023/04/20 01:58:21;;;;;;;11.23;10.33;;;;;;;0.72;nan;96871.78;5041818;28;20399;-73
2023/04/20 02:00:49;;;;;;;9.47;8.67;;;;;;;0.65;nan;96865.44;5045270;28;20228;-73
2023/04/20 02:03:16;;;;;;;9.33;8.63;;;;;;;0.57;nan;96860.88;5052286;28;20303;-70
2023/04/20 02:05:44;;;;;;;9.40;8.50;;;;;;;0.64;nan;96863.78;5003395;28;20214;-70
2023/04/20 02:08:12;;;;;;;9.40;8.47;;;;;;;0.61;nan;96863.25;5044459;28;20218;-70
2023/04/20 02:10:39;;;;;;;9.57;8.83;;;;;;;0.62;nan;96864.88;5052313;28;21034;-70
2023/04/20 02:13:07;;;;;;;11.57;10.47;;;;;;;0.56;nan;96843.56;5013338;28;20832;-69
2023/04/20 02:15:36;;;;;;;10.70;9.70;;;;;;;0.56;nan;96853.19;5053192;28;20473;-70
2023/04/20 02:18:04;;;;;;;10.40;9.50;;;;;;;0.55;nan;96857.56;5041344;28;20238;-69
2023/04/20 02:20:32;;;;;;;10.57;9.70;;;;;;;0.60;nan;96865.00;5001982;28;22421;-73
2023/04/20 02:23:00;;;;;;;10.57;9.73;;;;;;;0.59;nan;96857.31;5046252;28;20207;-71
2023/04/20 02:25:28;;;;;;;10.03;9.23;;;;;;;0.61;nan;96853.63;5048475;28;20503;-71
2023/04/20 02:27:56;;;;;;;10.67;9.67;;;;;;;0.56;nan;96855.78;5032838;28;20859;-70
2023/04/20 02:30:23;;;;;;;10.33;9.53;;;;;;;0.53;nan;96853.44;5049128;28;20218;-71
2023/04/20 02:32:52;;;;;;;10.00;9.10;;;;;;;0.47;nan;96857.38;5049182;28;20534;-71
2023/04/20 02:35:23;;;;;;;10.40;9.50;;;;;;;0.48;nan;96847.78;5019431;28;20217;-71
2023/04/20 02:37:52;;;;;;;11.10;10.00;;;;;;;0.53;nan;96862.06;5043797;28;20198;-70
2023/04/20 02:40:19;;;;;;;9.67;8.73;;;;;;;0.56;nan;96847.97;5040019;28;20213;-71
2023/04/20 02:42:47;;;;;;;10.30;9.37;;;;;;;0.57;nan;96855.69;5030399;28;20625;-72
2023/04/20 02:45:15;;;;;;;9.50;8.80;;;;;;;0.40;nan;96856.25;5050481;28;20255;-72
2023/04/20 02:47:42;;;;;;;10.03;9.13;;;;;;;0.37;nan;96852.09;5042093;28;20370;-71
2023/04/20 02:50:18;;;;;;;10.27;9.20;;;;;;;0.28;nan;96842.44;5038497;28;20202;-71
2023/04/20 02:52:48;;;;;;;10.37;9.50;;;;;;;0.34;nan;96841.13;5035415;28;20264;-69
2023/04/20 02:55:16;;;;;;;10.60;9.80;;;;;;;0.26;nan;96839.16;5050937;28;20792;-71
2023/04/20 02:57:43;;;;;;;11.13;10.20;;;;;;;0.23;nan;96837.66;5050196;28;20283;-70
2023/04/20 03:00:13;;;;;;;11.07;10.07;;;;;;;0.22;nan;96848.19;5031612;28;20267;-71
2023/04/20 03:02:40;;;;;;;10.67;9.67;;;;;;;0.20;nan;96853.53;5045122;28;20604;-70
2023/04/20 03:05:09;;;;;;;11.43;10.43;;;;;;;0.26;nan;96855.63;5048591;28;20222;-72
2023/04/20 03:07:38;;;;;;;11.00;10.10;;;;;;;0.32;nan;96849.06;4992242;28;20246;-72
2023/04/20 03:10:07;;;;;;;11.03;10.10;;;;;;;0.36;nan;96845.25;5053406;28;20534;-70
2023/04/20 03:12:34;;;;;;;10.47;9.67;;;;;;;0.39;nan;96855.44;5048631;28;20482;-70
2023/04/20 03:15:03;;;;;;;11.60;10.47;;;;;;;0.43;nan;96853.38;5029033;28;20288;-70
2023/04/20 03:17:31;;;;;;;10.97;10.07;;;;;;;0.48;nan;96859.03;5048609;28;20502;-72
2023/04/20 03:19:59;;;;;;;11.87;10.83;;;;;;;0.54;nan;96853.31;5049143;28;20214;-72
2023/04/20 03:22:27;;;;;;;11.10;10.10;;;;;;;0.46;nan;96860.13;4995283;28;20663;-71
2023/04/20 03:24:56;;;;;;;11.70;10.70;;;;;;;0.37;nan;96856.50;5051461;28;20282;-70
2023/04/20 03:27:23;;;;;;;11.60;10.40;;;;;;;0.34;nan;96848.94;5044446;28;20486;-70
2023/04/20 03:29:51;;;;;;;12.53;11.40;;;;;;;0.34;nan;96848.94;5053764;28;20996;-69
2023/04/20 03:32:19;;;;;;;13.00;11.77;;;;;;;0.32;nan;96848.25;5029162;28;20217;-70
2023/04/20 03:34:46;;;;;;;12.67;11.57;;;;;;;0.33;nan;96852.50;5051375;28;20302;-70
2023/04/20 03:37:14;;;;;;;12.77;11.47;;;;;;;0.32;nan;96848.25;5016464;28;20248;-70
2023/04/20 03:39:42;;;;;;;12.33;11.33;;;;;;;0.22;nan;96845.56;5001188;28;20214;-70
2023/04/20 03:42:11;;;;;;;11.77;10.77;;;;;;;0.28;nan;96851.13;5056140;28;20542;-69
2023/04/20 03:44:38;;;;;;;12.10;10.13;;;;;;;0.21;nan;96851.75;5052605;28;20724;-71
2023/04/20 03:47:06;;;;;;;12.90;11.60;;;;;;;0.16;nan;96856.50;5034226;28;20222;-70
2023/04/20 03:49:34;;;;;;;12.67;11.37;;;;;;;0.12;nan;96859.38;5058437;28;20217;-71
2023/04/20 03:52:02;;;;;;;11.67;10.67;;;;;;;0.15;nan;96860.88;5054704;28;20427;-71
2023/04/20 03:54:30;;;;;;;13.27;11.77;;;;;;;0.18;nan;96858.03;5005153;28;20793;-71
2023/04/20 03:56:58;;;;;;;12.90;11.67;;;;;;;0.07;nan;96855.47;5054448;28;20311;-69
2023/04/20 03:59:27;;;;;;;13.37;11.97;;;;;;;0.03;nan;96854.91;5055943;28;20623;-70
2023/04/20 04:01:55;;;;;;;12.43;11.13;;;;;;;0.02;nan;96861.09;5033110;28;20210;-70
2023/04/20 04:04:23;;;;;;;12.70;11.53;;;;;;;-0.02;nan;96862.25;5057880;28;20222;-69
2023/04/20 04:06:51;;;;;;;13.70;12.50;;;;;;;-0.01;nan;96864.75;5051901;28;20428;-69
2023/04/20 04:09:19;;;;;;;12.60;11.43;;;;;;;0.04;nan;96860.94;5000691;28;20764;-71
2023/04/20 04:11:46;;;;;;;13.03;11.93;;;;;;;0.07;nan;96855.47;5055793;28;20573;-72
2023/04/20 04:14:14;;;;;;;12.03;11.00;;;;;;;0.13;nan;96862.78;5054588;28;20713;-70
2023/04/20 04:16:44;;;;;;;11.77;10.77;;;;;;;0.13;nan;96857.56;5038506;28;20207;-72
2023/04/20 04:19:12;;;;;;;12.40;10.93;;;;;;;0.07;nan;96856.31;5057341;28;20643;-71
2023/04/20 04:21:40;;;;;;;12.03;10.93;;;;;;;0.09;nan;96859.63;5051876;28;20310;-71
2023/04/20 04:24:08;;;;;;;13.00;11.70;;;;;;;0.10;nan;96863.03;5001027;28;23028;-71
2023/04/20 04:26:36;;;;;;;11.93;10.93;;;;;;;0.06;nan;96862.47;5023765;28;20762;-71
2023/04/20 04:29:05;;;;;;;12.57;11.40;;;;;;;0.09;nan;96853.56;5055022;28;20536;-70
2023/04/20 04:31:33;;;;;;;13.07;11.83;;;;;;;0.04;nan;96848.75;5048800;28;20808;-70
2023/04/20 04:34:03;;;;;;;12.93;11.83;;;;;;;0.15;nan;96858.28;5018622;28;20230;-71
2023/04/20 04:36:31;;;;;;;13.63;12.33;;;;;;;0.20;nan;96855.31;5045360;28;20210;-71
2023/04/20 04:39:00;;;;;;;13.10;11.90;;;;;;;0.22;nan;96859.44;5052869;28;20264;-71
2023/04/20 04:41:31;;;;;;;14.87;12.23;;;;;;;0.24;nan;96854.94;5023343;28;20458;-70
2023/04/20 04:44:00;;;;;;;12.43;11.33;;;;;;;0.30;nan;96860.59;5051325;28;20273;-71
2023/04/20 04:46:27;;;;;;;14.40;13.03;;;;;;;0.40;nan;96845.81;5051593;28;20228;-70
2023/04/20 04:48:55;;;;;;;13.93;12.60;;;;;;;0.45;nan;96848.06;5026817;28;20239;-71
2023/04/20 04:51:24;;;;;;;12.33;11.20;;;;;;;0.44;nan;96849.81;5051953;28;20891;-71
2023/04/20 04:53:52;;;;;;;13.57;12.40;;;;;;;0.50;nan;96845.88;5051753;28;21062;-70
2023/04/20 04:56:22;;;;;;;13.37;12.17;;;;;;;0.53;nan;96853.44;4994461;28;20211;-70
2023/04/20 04:58:50;;;;;;;13.57;12.23;;;;;;;0.57;nan;96852.22;5053696;28;20499;-70
2023/04/20 05:01:17;;;;;;;13.60;12.37;;;;;;;0.44;nan;96847.22;5034848;28;20635;-71
2023/04/20 05:03:45;;;;;;;12.53;11.30;;;;;;;0.43;nan;96851.63;5031036;28;20235;-70
2023/04/20 05:06:13;;;;;;;13.37;11.77;;;;;;;0.43;nan;96842.97;5048055;28;20602;-71
2023/04/20 05:08:42;;;;;;;14.07;12.73;;;;;;;0.57;nan;96860.06;5051416;28;20242;-71
2023/04/20 05:11:10;;;;;;;13.57;12.27;;;;;;;0.56;nan;96851.38;5008935;28;20587;-72
2023/04/20 05:13:38;;;;;;;13.57;12.27;;;;;;;0.71;nan;96853.69;5055878;28;20218;-71
2023/04/20 05:16:05;;;;;;;12.47;11.37;;;;;;;0.76;nan;96853.25;5052244;28;20666;-72
2023/04/20 05:18:33;;;;;;;13.10;11.97;;;;;;;0.73;nan;96854.38;5034046;28;20739;-70
2023/04/20 05:21:02;;;;;;;13.43;12.13;;;;;;;0.90;nan;96857.31;5058839;28;20206;-73
2023/04/20 05:23:29;;;;;;;12.23;11.13;;;;;;;0.98;nan;96860.13;5051415;28;20789;-70
2023/04/20 05:25:59;;;;;;;13.83;12.63;;;;;;;1.05;nan;96857.78;5053137;28;20202;-71
2023/04/20 05:28:33;;;;;;;12.17;11.17;;;;;;;1.07;nan;96856.72;5022986;28;20379;-72
2023/04/20 05:31:00;;;;;;;12.00;11.00;;;;;;;1.15;nan;96843.00;5055896;28;20267;-71
2023/04/20 05:33:28;;;;;;;11.60;10.60;;;;;;;1.15;nan;96841.22;5051079;28;20322;-70
2023/04/20 05:35:56;;;;;;;12.27;11.27;;;;;;;1.12;nan;96838.03;5033810;28;20577;-69
2023/04/20 05:38:24;;;;;;;12.60;11.40;;;;;;;1.25;nan;96840.41;5048342;28;20219;-70
2023/04/20 05:40:52;;;;;;;12.10;10.97;;;;;;;1.34;nan;96844.00;5054528;28;20206;-70
2023/04/20 05:43:21;;;;;;;12.20;11.10;;;;;;;1.35;nan;96846.50;5002492;28;20331;-69
2023/04/20 05:45:49;;;;;;;12.40;11.20;;;;;;;1.43;nan;96844.03;5054778;28;20210;-69
2023/04/20 05:48:17;;;;;;;11.60;10.60;;;;;;;1.38;nan;96846.22;5050145;28;20213;-70
2023/04/20 05:50:44;;;;;;;12.40;11.20;;;;;;;1.44;nan;96847.44;5034410;28;20584;-70
2023/04/20 05:53:12;;;;;;;12.40;11.10;;;;;;;1.46;nan;96845.53;5048378;28;20234;-70
2023/04/20 05:55:40;;;;;;;11.70;10.63;;;;;;;1.55;nan;96842.13;5056044;28;20206;-69
2023/04/20 05:58:08;;;;;;;12.80;11.53;;;;;;;1.75;nan;96849.16;5001834;28;20225;-70
2023/04/20 06:00:37;;;;;;;11.87;10.83;;;;;;;1.80;nan;96847.75;5050111;28;20234;-69
2023/04/20 06:03:04;;;;;;;13.13;11.83;;;;;;;1.76;nan;96828.09;5055306;28;20206;-69
2023/04/20 06:05:32;;;;;;;12.27;11.17;;;;;;;2.01;nan;96852.84;5033595;28;20491;-70
2023/04/20 06:08:00;;;;;;;12.50;11.47;;;;;;;1.84;nan;96841.28;5053649;28;20206;-69
2023/04/20 06:10:31;;;;;;;11.57;10.57;;;;;;;2.02;nan;96840.63;5047070;28;20238;-70
2023/04/20 06:12:59;;;;;;;16.37;14.73;;;;;;;2.27;nan;96854.91;5054096;28;20563;-69
2023/04/20 06:15:30;;;;;;;11.50;10.40;;;;;;;2.42;nan;96850.06;5010427;28;20198;-70
2023/04/20 06:18:00;;;;;;;11.17;10.13;;;;;;;2.53;nan;96849.09;5055735;28;20210;-70
2023/04/20 06:20:28;;;;;;;11.43;9.80;;;;;;;2.64;nan;96852.50;5048506;28;20840;-70
2023/04/20 06:22:56;;;;;;;11.43;10.33;;;;;;;2.87;nan;96850.34;5030153;28;20210;-69
2023/04/20 06:25:24;;;;;;;10.90;9.90;;;;;;;2.89;nan;96845.78;5049999;28;20690;-69
2023/04/20 06:27:51;;;;;;;11.57;10.47;;;;;;;3.09;nan;96843.91;5057276;28;20393;-69
2023/04/20 06:30:19;;;;;;;11.43;10.43;;;;;;;3.35;nan;96845.84;4992610;28;20213;-69
2023/04/20 06:32:47;;;;;;;11.90;10.77;;;;;;;3.21;nan;96849.78;5053007;28;20206;-70
2023/04/20 06:35:16;;;;;;;10.83;9.93;;;;;;;3.32;nan;96852.19;5048419;28;20407;-70
2023/04/20 06:37:44;;;;;;;10.73;9.83;;;;;;;3.40;nan;96842.78;5033182;28;20254;-69
2023/04/20 06:40:11;;;;;;;11.07;10.17;;;;;;;3.55;nan;96843.09;5048428;28;20203;-70
2023/04/20 06:42:41;;;;;;;10.63;9.73;;;;;;;3.28;nan;96835.13;5054373;28;20232;-69
2023/04/20 06:45:19;;;;;;;10.70;9.80;;;;;;;3.50;nan;96838.31;5026182;28;20722;-69
2023/04/20 06:47:47;;;;;;;11.20;10.10;;;;;;;3.57;nan;96843.78;5043105;28;20202;-69
2023/04/20 06:50:17;;;;;;;10.90;10.00;;;;;;;3.50;nan;96848.81;5050841;28;20325;-70
2023/04/20 06:52:47;;;;;;;10.80;9.83;;;;;;;3.15;nan;96835.47;5029069;28;20282;-69
2023/04/20 06:55:14;;;;;;;11.60;10.50;;;;;;;2.88;nan;96844.13;5050917;28;20206;-71
2023/04/20 06:57:43;;;;;;;11.87;10.67;;;;;;;2.85;nan;96840.03;5050458;28;20629;-70
2023/04/20 07:00:13;;;;;;;11.03;10.03;;;;;;;3.14;nan;96840.88;5020511;28;20194;-70
2023/04/20 07:02:47;;;;;;;11.67;10.60;;;;;;;3.25;nan;96840.66;5054332;28;20205;-70
2023/04/20 07:05:17;;;;;;;10.73;9.83;;;;;;;3.32;nan;96840.91;5050388;28;20248;-71
2023/04/20 07:07:45;;;;;;;10.97;10.03;;;;;;;3.33;nan;96843.38;5030987;28;20519;-69
2023/04/20 07:10:14;;;;;;;12.23;11.20;;;;;;;3.30;nan;96840.25;5047074;28;20292;-70
2023/04/20 07:12:42;;;;;;;11.20;10.30;;;;;;;3.15;nan;96850.38;5051373;28;20701;-70
2023/04/20 07:15:11;;;;;;;12.27;10.57;;;;;;;3.30;nan;96848.91;5047526;28;20230;-70
2023/04/20 07:17:38;;;;;;;10.90;10.00;;;;;;;3.29;nan;96849.88;5001142;28;20218;-70
2023/04/20 07:20:08;;;;;;;11.13;10.23;;;;;;;3.24;nan;96853.91;5053175;28;20248;-70
2023/04/20 07:22:38;;;;;;;11.20;10.30;;;;;;;3.33;nan;96845.19;5026796;28;20962;-69
2023/04/20 07:25:07;;;;;;;13.13;12.03;;;;;;;3.35;nan;96839.78;5048204;28;20283;-70
2023/04/20 07:27:36;;;;;;;11.73;10.70;;;;;;;3.43;nan;96853.78;5048876;28;20275;-69
2023/04/20 07:30:05;;;;;;;11.97;10.87;;;;;;;3.28;nan;96839.56;5050812;28;20219;-70
2023/04/20 07:32:33;;;;;;;11.80;10.80;;;;;;;3.44;nan;96844.97;4998541;28;21394;-70
2023/04/20 07:35:01;;;;;;;12.63;11.47;;;;;;;3.39;nan;96841.13;5055005;28;20225;-71
2023/04/20 07:37:28;;;;;;;12.23;11.07;;;;;;;3.21;nan;96831.47;5022641;28;20940;-70
2023/04/20 07:39:57;;;;;;;11.83;10.73;;;;;;;3.28;nan;96844.81;5049468;28;20674;-69
2023/04/20 07:42:25;;;;;;;12.47;11.27;;;;;;;3.37;nan;96854.38;5048061;28;20424;-69
2023/04/20 07:44:54;;;;;;;13.00;11.90;;;;;;;3.44;nan;96844.16;5050844;28;20754;-69
2023/04/20 07:47:21;;;;;;;13.00;11.80;;;;;;;3.70;nan;96839.00;5005230;28;21834;-70
2023/04/20 07:49:49;;;;;;;11.40;10.30;;;;;;;4.01;nan;96830.78;5051087;28;20253;-69
2023/04/20 07:52:17;;;;;;;12.07;11.00;;;;;;;4.01;nan;96825.53;5043298;28;20619;-70
2023/04/20 07:54:45;;;;;;;11.03;10.13;;;;;;;4.19;nan;96822.91;5034587;28;20287;-69
2023/04/20 07:57:14;;;;;;;12.03;10.93;;;;;;;4.42;nan;96817.13;5047434;28;20210;-70
2023/04/20 07:59:42;;;;;;;11.47;10.47;;;;;;;4.61;nan;96823.16;5051765;28;20274;-70
2023/04/20 08:02:16;;;;;;;13.63;12.27;;;;;;;4.86;nan;96823.28;5022443;28;20202;-71
2023/04/20 08:04:45;;;;;;;12.70;11.33;;;;;;;4.87;nan;96819.66;5054184;28;20229;-69
2023/04/20 08:07:13;;;;;;;10.37;9.47;;;;;;;4.89;nan;96823.81;5044142;28;20206;-70
2023/04/20 08:09:41;;;;;;;11.30;10.37;;;;;;;4.86;nan;96812.78;5029640;28;20363;-69
2023/04/20 08:12:08;;;;;;;12.07;10.93;;;;;;;4.74;nan;96823.56;5049740;28;20217;-70
2023/04/20 08:14:39;;;;;;;10.60;9.77;;;;;;;4.47;nan;96811.44;5049862;28;20320;-70
2023/04/20 08:17:07;;;;;;;11.93;10.77;;;;;;;4.59;nan;96812.81;5046231;28;20211;-70
2023/04/20 08:19:35;;;;;;;12.30;11.03;;;;;;;4.40;nan;96811.22;4996410;22;20457;-73
2023/04/20 08:22:02;;;;;;;10.43;9.33;;;;;;;4.29;nan;96807.03;5011952;28;20211;-71
2023/04/20 08:24:30;;;;;;;10.67;9.67;;;;;;;4.37;nan;96808.91;4994440;28;20219;-72
2023/04/20 08:26:58;;;;;;;11.90;10.83;;;;;;;4.47;nan;96806.19;5020191;28;20584;-71
2023/04/20 08:29:26;;;;;;;10.73;9.73;;;;;;;4.54;nan;96804.59;5007164;28;20239;-72
2023/04/20 08:31:55;;;;;;;10.47;9.47;;;;;;;4.44;nan;96799.44;4994710;28;20287;-72
2023/04/20 08:34:23;;;;;;;11.57;10.47;;;;;;;4.62;nan;96807.25;4964814;28;20248;-71
2023/04/20 08:36:51;;;;;;;11.30;10.30;;;;;;;4.63;nan;96801.03;4997655;28;20201;-70
2023/04/20 08:39:20;;;;;;;10.13;9.27;;;;;;;4.87;nan;96802.13;4973602;28;20240;-70
2023/04/20 08:41:49;;;;;;;10.10;9.17;;;;;;;4.97;nan;96811.69;4996128;28;20193;-72
2023/04/20 08:44:16;;;;;;;10.47;9.67;;;;;;;4.96;nan;96796.91;4999857;28;20219;-70
2023/04/20 08:46:47;;;;;;;10.03;9.10;;;;;;;5.08;nan;96790.38;4994780;28;20830;-70
2023/04/20 08:49:17;;;;;;;9.83;8.93;;;;;;;5.08;nan;96798.25;4997892;28;20224;-69
2023/04/20 08:51:46;;;;;;;9.13;8.43;;;;;;;5.04;nan;96802.19;4962201;28;20220;-69
2023/04/20 08:54:13;;;;;;;9.87;9.07;;;;;;;5.09;nan;96792.03;4996802;28;20205;-71
2023/04/20 08:56:42;;;;;;;8.97;8.27;;;;;;;5.06;nan;96790.56;4977203;28;20254;-72
2023/04/20 08:59:12;;;;;;;9.80;9.00;;;;;;;5.15;nan;96785.31;4999047;28;20235;-70
2023/04/20 09:01:41;;;;;;;10.97;9.93;;;;;;;5.31;nan;96789.81;4995230;28;20544;-70
2023/04/20 09:04:17;;;;;;;10.40;9.40;;;;;;;5.54;nan;96794.47;4997871;28;20975;-69
2023/04/20 09:06:46;;;;;;;10.57;9.60;;;;;;;5.35;nan;96794.59;4940751;28;20208;-68
2023/04/20 09:09:13;;;;;;;9.43;8.57;;;;;;;5.34;nan;96800.00;4993973;28;20232;-68
2023/04/20 09:11:41;;;;;;;10.37;9.37;;;;;;;5.63;nan;96786.41;4976688;28;20282;-69
2023/04/20 09:14:12;;;;;;;10.50;9.40;;;;;;;6.01;nan;96790.41;4976227;28;20207;-68
2023/04/20 09:16:49;;;;;;;9.40;8.53;;;;;;;6.12;nan;96792.72;4993280;28;20258;-70
2023/04/20 09:19:23;;;;;;;11.10;10.17;;;;;;;6.06;nan;96793.38;4994498;28;20243;-71
2023/04/20 09:21:52;;;;;;;8.83;8.03;;;;;;;6.08;nan;96786.97;4965231;28;20216;-71
2023/04/20 09:24:21;;;;;;;9.10;8.30;;;;;;;6.05;nan;96795.19;4990320;28;20209;-68
2023/04/20 09:26:49;;;;;;;9.10;8.40;;;;;;;6.11;nan;96791.09;4977555;28;20676;-68
2023/04/20 09:29:18;;;;;;;9.97;8.87;;;;;;;6.04;nan;96787.44;4972294;28;20240;-69
2023/04/20 09:31:46;;;;;;;9.50;8.70;;;;;;;6.17;nan;96781.69;4996188;28;21075;-69
2023/04/20 09:34:15;;;;;;;9.17;8.40;;;;;;;6.05;nan;96784.66;4996999;28;20219;-68
2023/04/20 09:36:45;;;;;;;8.57;7.73;;;;;;;6.14;nan;96776.75;4962311;28;20212;-66
2023/04/20 09:39:15;;;;;;;8.20;7.50;;;;;;;6.50;nan;96779.00;4994287;28;20227;-68
2023/04/20 09:41:43;;;;;;;8.23;7.53;;;;;;;6.28;nan;96770.84;4998847;28;20266;-68
2023/04/20 09:44:12;;;;;;;8.20;7.50;;;;;;;6.23;nan;96779.22;4950868;28;20232;-69
2023/04/20 09:46:41;;;;;;;7.80;7.20;;;;;;;5.68;nan;96780.69;4993910;28;20923;-69
2023/04/20 09:49:09;;;;;;;7.07;6.57;;;;;;;5.58;nan;96786.09;4994353;28;20240;-69
2023/04/20 09:51:40;;;;;;;8.53;7.63;;;;;;;5.63;nan;96778.53;4963160;28;20219;-68
2023/04/20 09:54:10;;;;;;;7.67;7.07;;;;;;;5.46;nan;96771.63;4995234;28;20216;-69
2023/04/20 09:56:38;;;;;;;7.60;6.90;;;;;;;5.45;nan;96764.72;4994874;28;20212;-68
2023/04/20 09:59:07;;;;;;;7.10;6.50;;;;;;;5.47;nan;96762.75;4969643;28;20290;-69
2023/04/20 10:01:36;;;;;;;6.67;6.17;;;;;;;5.52;nan;96768.34;4982636;28;22314;-68
2023/04/20 10:04:07;;;;;;;7.00;6.50;;;;;;;5.46;nan;96761.91;4994894;28;20208;-69
2023/04/20 10:06:36;;;;;;;6.73;6.27;;;;;;;5.83;nan;96761.63;4963540;28;21310;-66
2023/04/20 10:09:06;;;;;;;6.60;6.10;;;;;;;5.82;nan;96768.69;4996309;28;20619;-68
2023/04/20 10:11:36;;;;;;;6.67;6.07;;;;;;;5.76;nan;96761.47;4992495;28;20547;-68
2023/04/20 10:14:21;;;;;;;6.17;5.77;;;;;;;5.88;nan;96760.16;4973540;28;20209;-70
2023/04/20 10:16:59;;;;;;;5.87;5.47;;;;;;;6.18;nan;96757.88;4970528;28;20215;-68
2023/04/20 10:19:36;;;;;;;6.13;5.73;;;;;;;6.60;nan;96753.31;4991525;28;20296;-68
2023/04/20 10:22:04;;;;;;;6.13;5.63;;;;;;;6.80;nan;96750.31;4963697;28;20204;-68
2023/04/20 10:24:32;;;;;;;5.73;5.33;;;;;;;6.88;nan;96755.53;4990104;28;20208;-68
2023/04/20 10:27:01;;;;;;;5.03;4.63;;;;;;;6.83;nan;96749.16;4999458;28;20319;-69
2023/04/20 10:29:30;;;;;;;4.90;4.60;;;;;;;6.91;nan;96754.38;4975378;28;21000;-70
2023/04/20 10:31:57;;;;;;;5.23;4.93;;;;;;;7.31;nan;96762.22;4970025;28;20229;-68
2023/04/20 10:34:31;;;;;;;5.07;4.77;;;;;;;7.33;nan;96753.16;4996634;28;20216;-69
2023/04/20 10:37:09;;;;;;;5.47;5.07;;;;;;;6.91;nan;96749.91;4964747;28;20278;-68
2023/04/20 10:39:44;;;;;;;5.70;5.30;;;;;;;6.70;nan;96739.97;4995018;28;20230;-69
2023/04/20 10:42:13;;;;;;;6.00;5.60;;;;;;;6.99;nan;96730.63;4997188;28;20237;-68
2023/04/20 10:44:47;;;;;;;4.97;4.67;;;;;;;6.97;nan;96724.72;4973890;28;20209;-67
2023/04/20 10:47:15;;;;;;;5.57;5.17;;;;;;;6.99;nan;96719.25;4967440;28;20213;-68
2023/04/20 10:49:43;;;;;;;5.10;4.80;;;;;;;7.27;nan;96711.72;4995193;28;20926;-67
2023/04/20 10:52:11;;;;;;;5.23;4.93;;;;;;;7.21;nan;96701.88;4972001;28;20232;-68
2023/04/20 10:54:40;;;;;;;5.47;5.07;;;;;;;7.60;nan;96703.56;4987430;28;20217;-69
2023/04/20 10:57:07;;;;;;;4.80;4.40;;;;;;;7.69;nan;96712.22;4994798;28;20216;-69
2023/04/20 10:59:37;;;;;;;5.70;5.30;;;;;;;7.49;nan;96703.97;4995438;28;20220;-69
2023/04/20 11:02:07;;;;;;;6.00;5.63;;;;;;;7.53;nan;96699.97;4952751;28;20321;-70
2023/04/20 11:04:35;;;;;;;5.50;5.20;;;;;;;7.35;nan;96706.38;4989942;28;20208;-69
2023/04/20 11:07:05;;;;;;;5.87;5.47;;;;;;;7.50;nan;96688.00;4994509;28;20208;-67
2023/04/20 11:09:34;;;;;;;5.20;4.90;;;;;;;8.01;nan;96686.56;4962674;28;21225;-67
2023/04/20 11:12:03;;;;;;;5.27;4.97;;;;;;;8.13;nan;96679.03;4992003;28;20692;-68
2023/04/20 11:14:31;;;;;;;6.00;5.60;;;;;;;8.42;nan;96679.19;4992661;28;20391;-69
2023/04/20 11:17:01;;;;;;;6.07;5.57;;;;;;;8.54;nan;96683.06;4973899;28;20212;-68
2023/04/20 11:19:30;;;;;;;6.00;5.70;;;;;;;8.12;nan;96674.75;4972173;28;20235;-68
2023/04/20 11:21:59;;;;;;;6.93;6.43;;;;;;;8.40;nan;96672.28;4995339;28;20203;-68
2023/04/20 11:24:28;;;;;;;6.30;5.80;;;;;;;8.16;nan;96673.38;4959050;28;20954;-68
2023/04/20 11:26:56;;;;;;;6.50;6.10;;;;;;;7.61;nan;96665.66;4997778;28;20196;-68
2023/04/20 11:29:34;;;;;;;6.20;5.80;;;;;;;7.98;nan;96668.44;4992492;28;20220;-69
2023/04/20 11:32:05;;;;;;;6.70;6.20;;;;;;;8.26;nan;96673.13;4990467;28;21673;-67
2023/04/20 11:34:33;;;;;;;7.90;7.30;;;;;;;8.02;nan;96658.38;4958073;28;20216;-68
2023/04/20 11:37:04;;;;;;;7.03;6.53;;;;;;;8.31;nan;96652.28;4993600;28;20312;-68
2023/04/20 11:39:32;;;;;;;8.30;7.37;;;;;;;8.26;nan;96644.88;4960612;28;22166;-68
2023/04/20 11:42:00;;;;;;;8.77;8.00;;;;;;;8.39;nan;96648.72;4999759;28;20212;-70
2023/04/20 11:44:28;;;;;;;8.80;8.10;;;;;;;8.37;nan;96648.91;4992575;28;20211;-66
2023/04/20 11:46:56;;;;;;;8.37;7.40;;;;;;;8.28;nan;96651.81;4990910;28;20211;-68
2023/04/20 11:49:27;;;;;;;8.50;7.80;;;;;;;8.41;nan;96649.34;4949967;28;20232;-69
2023/04/20 11:51:55;;;;;;;8.67;7.97;;;;;;;8.34;nan;96643.19;4993641;28;20231;-68
2023/04/20 11:54:24;;;;;;;8.17;7.57;;;;;;;8.32;nan;96640.72;4990719;28;20565;-70
2023/04/20 11:56:51;;;;;;;8.60;7.80;;;;;;;8.67;nan;96640.13;4963903;28;20204;-69